Pagrindinis puslapis
METAR-TAF:

METAR-TAF

Oro uostai :

Macaé, Rio de Janeiro, Brazilija

platuma: 22-21S, ilguma: 041-46W, Aukštis: 2 m

Dabartinis oras

Ataskaita buvo paskelbta 1 valandą ir 6 minutes, ne 21:00 UTC
Vėjas 11 kt iš Rytų
Temperatūra 23°C
Drėgmė 89%
Slėgis 1016 hPa
Matomumas 10 km arba daugiau
nėra debesų žemiau 1500 m ir nėra kamuolinių lietaus debesų

METAR: SBME 162100Z 08011KT CAVOK 23/21 Q1016

Laikas: 19:06 (22:06 UTC)

Prognozė

Ataskaita buvo paskelbta 5 valandos ir 36 minutes, ne 16:30 UTC
Prognozė galioja nuo 16 metu 18 UTC su 17 metu 06 UTC
Vėjas 15 kt iš Rytų
Matomumas 10 km arba daugiau
Mažai debesys ne aukštis 2500 ft
Laikinai
nuo 16 metu 19 UTC su 16 metu 22 UTC
Vėjas 20 kt iš Rytų/Šiaurės Rytų su gūsio iki 30 kt
Tapsmas
nuo 16 metu 22 UTC su 16 metu 24 UTC
Vėjas 10 kt iš Šiaurės Rytų

TAF: SBME 161630Z 1618/1706 08015KT 9999 FEW025 TX32/1618Z TN22/1706Z TEMPO 1619/1622 06020G30KT BECMG 1622/1624 04010KT RMK PGB

Orai ataskaitas ir orų prognozės (METAR, TAF).

turimą stotys yra geltonos ir raudonos taškus žemėlapyje.

Perkelti pele per norėdami pamatyti stoties vardą.

Tada spustelėkite, norėdami matyti oro stebėjimo ir prognozės.

Norėdami pakeisti žemėlapį: spustelėkite ant žalios mygtukų su juodo kryžiaus žemyn,; žalią mygtuką su brūkšneliu, jei norite nutolinti; arba žalių rodyklių gretimoms žemėlapius.


METAR-TAF: